sensor_id;sensor_type;location;lat;lon;timestamp;pressure;altitude;pressure_sealevel;temperature;humidity
73952;BME280;62304;47.662;18.324;2023-01-16T00:00:48;99661.34;;;5.24;95.50
73952;BME280;62304;47.662;18.324;2023-01-16T00:03:51;99677.12;;;5.27;95.07
73952;BME280;62304;47.662;18.324;2023-01-16T00:06:54;99681.63;;;5.19;94.87
73952;BME280;62304;47.662;18.324;2023-01-16T00:09:57;99666.91;;;5.12;94.89
73952;BME280;62304;47.662;18.324;2023-01-16T00:13:00;99671.91;;;4.94;95.21
73952;BME280;62304;47.662;18.324;2023-01-16T00:16:04;99675.34;;;4.91;95.87
73952;BME280;62304;47.662;18.324;2023-01-16T00:19:06;99682.66;;;4.99;96.25
73952;BME280;62304;47.662;18.324;2023-01-16T00:22:10;99676.50;;;4.90;96.93
73952;BME280;62304;47.662;18.324;2023-01-16T00:25:12;99669.84;;;4.91;98.00
73952;BME280;62304;47.662;18.324;2023-01-16T00:28:16;99677.78;;;5.08;96.98
73952;BME280;62304;47.662;18.324;2023-01-16T00:31:19;99671.16;;;5.09;96.37
73952;BME280;62304;47.662;18.324;2023-01-16T00:34:22;99671.78;;;5.18;96.26
73952;BME280;62304;47.662;18.324;2023-01-16T00:37:25;99663.09;;;5.16;95.79
73952;BME280;62304;47.662;18.324;2023-01-16T00:40:29;99666.84;;;4.96;96.69
73952;BME280;62304;47.662;18.324;2023-01-16T00:43:32;99665.66;;;5.09;96.41
73952;BME280;62304;47.662;18.324;2023-01-16T00:46:35;99665.53;;;5.06;95.47
73952;BME280;62304;47.662;18.324;2023-01-16T00:49:38;99663.66;;;4.94;95.56
73952;BME280;62304;47.662;18.324;2023-01-16T00:52:42;99677.25;;;5.03;96.02
73952;BME280;62304;47.662;18.324;2023-01-16T00:55:44;99685.41;;;4.99;96.06
73952;BME280;62304;47.662;18.324;2023-01-16T00:58:47;99675.03;;;5.08;95.92
73952;BME280;62304;47.662;18.324;2023-01-16T01:01:50;99679.84;;;5.11;96.07
73952;BME280;62304;47.662;18.324;2023-01-16T01:04:53;99680.84;;;4.91;96.80
73952;BME280;62304;47.662;18.324;2023-01-16T01:07:56;99675.56;;;4.98;96.52
73952;BME280;62304;47.662;18.324;2023-01-16T01:11:14;99654.06;;;5.16;95.82
73952;BME280;62304;47.662;18.324;2023-01-16T01:14:17;99655.12;;;5.11;95.56
73952;BME280;62304;47.662;18.324;2023-01-16T01:17:20;99653.62;;;5.14;95.50
73952;BME280;62304;47.662;18.324;2023-01-16T01:20:23;99650.78;;;5.10;95.49
73952;BME280;62304;47.662;18.324;2023-01-16T01:23:26;99637.50;;;4.85;96.53
73952;BME280;62304;47.662;18.324;2023-01-16T01:26:29;99646.22;;;5.02;95.81
73952;BME280;62304;47.662;18.324;2023-01-16T01:29:32;99661.25;;;4.93;95.34
73952;BME280;62304;47.662;18.324;2023-01-16T01:32:35;99667.34;;;4.86;95.55
73952;BME280;62304;47.662;18.324;2023-01-16T01:35:40;99673.31;;;4.88;95.86
73952;BME280;62304;47.662;18.324;2023-01-16T01:38:43;99667.47;;;4.90;96.02
73952;BME280;62304;47.662;18.324;2023-01-16T01:41:47;99666.37;;;4.67;97.37
73952;BME280;62304;47.662;18.324;2023-01-16T01:44:54;99663.84;;;4.74;96.76
73952;BME280;62304;47.662;18.324;2023-01-16T01:51:28;99641.50;;;4.87;96.41
73952;BME280;62304;47.662;18.324;2023-01-16T01:54:37;99647.22;;;4.82;96.86
73952;BME280;62304;47.662;18.324;2023-01-16T01:57:45;99641.97;;;4.77;97.26
73952;BME280;62304;47.662;18.324;2023-01-16T02:00:51;99638.41;;;4.77;97.44
73952;BME280;62304;47.662;18.324;2023-01-16T02:03:59;99635.28;;;4.90;96.83
73952;BME280;62304;47.662;18.324;2023-01-16T02:07:06;99634.78;;;5.00;96.36
73952;BME280;62304;47.662;18.324;2023-01-16T02:10:36;99632.28;;;4.95;96.31
73952;BME280;62304;47.662;18.324;2023-01-16T02:13:40;99616.19;;;4.82;96.66
73952;BME280;62304;47.662;18.324;2023-01-16T02:16:45;99606.78;;;5.10;95.77
73952;BME280;62304;47.662;18.324;2023-01-16T02:34:22;99558.66;;;5.16;94.50
73952;BME280;62304;47.662;18.324;2023-01-16T02:44:36;99533.41;;;5.26;93.86
73952;BME280;62304;47.662;18.324;2023-01-16T02:48:05;99538.16;;;5.45;93.09
73952;BME280;62304;47.662;18.324;2023-01-16T02:51:12;99540.56;;;5.46;92.81
73952;BME280;62304;47.662;18.324;2023-01-16T02:54:31;99540.91;;;5.29;92.87
73952;BME280;62304;47.662;18.324;2023-01-16T02:57:45;99524.44;;;5.29;92.69
73952;BME280;62304;47.662;18.324;2023-01-16T03:00:55;99511.75;;;5.09;93.66
73952;BME280;62304;47.662;18.324;2023-01-16T03:10:45;99521.06;;;5.20;92.45
73952;BME280;62304;47.662;18.324;2023-01-16T03:17:21;99498.78;;;5.25;92.32
73952;BME280;62304;47.662;18.324;2023-01-16T03:24:26;99501.66;;;5.29;91.88
73952;BME280;62304;47.662;18.324;2023-01-16T03:30:54;99488.84;;;5.36;91.87
73952;BME280;62304;47.662;18.324;2023-01-16T03:40:36;99495.34;;;4.97;92.31
73952;BME280;62304;47.662;18.324;2023-01-16T03:43:44;99489.31;;;4.92;92.89
73952;BME280;62304;47.662;18.324;2023-01-16T03:46:48;99480.03;;;5.12;92.53
73952;BME280;62304;47.662;18.324;2023-01-16T03:49:58;99484.97;;;5.06;92.65
73952;BME280;62304;47.662;18.324;2023-01-16T03:53:08;99479.31;;;5.15;92.49
73952;BME280;62304;47.662;18.324;2023-01-16T03:56:19;99463.97;;;5.14;92.65
73952;BME280;62304;47.662;18.324;2023-01-16T03:59:25;99457.12;;;4.92;93.04
73952;BME280;62304;47.662;18.324;2023-01-16T04:02:46;99435.41;;;4.72;93.86
73952;BME280;62304;47.662;18.324;2023-01-16T04:06:06;99432.06;;;4.78;93.81
73952;BME280;62304;47.662;18.324;2023-01-16T04:13:19;99434.03;;;4.93;92.96
73952;BME280;62304;47.662;18.324;2023-01-16T04:16:24;99421.59;;;4.84;92.97
73952;BME280;62304;47.662;18.324;2023-01-16T04:19:28;99419.34;;;4.43;94.91
73952;BME280;62304;47.662;18.324;2023-01-16T04:22:33;99413.84;;;4.27;96.07
73952;BME280;62304;47.662;18.324;2023-01-16T04:25:36;99404.72;;;4.39;95.62
73952;BME280;62304;47.662;18.324;2023-01-16T04:28:39;99403.41;;;4.48;95.42
73952;BME280;62304;47.662;18.324;2023-01-16T04:31:42;99408.53;;;4.34;95.87
73952;BME280;62304;47.662;18.324;2023-01-16T04:34:45;99399.41;;;4.30;96.23
73952;BME280;62304;47.662;18.324;2023-01-16T04:37:48;99397.47;;;4.46;95.52
73952;BME280;62304;47.662;18.324;2023-01-16T04:40:54;99391.47;;;4.56;95.10
73952;BME280;62304;47.662;18.324;2023-01-16T04:43:57;99384.09;;;4.29;96.32
73952;BME280;62304;47.662;18.324;2023-01-16T04:47:00;99374.88;;;4.37;95.97
73952;BME280;62304;47.662;18.324;2023-01-16T04:50:04;99365.25;;;4.43;95.83
73952;BME280;62304;47.662;18.324;2023-01-16T04:53:07;99368.78;;;4.59;95.19
73952;BME280;62304;47.662;18.324;2023-01-16T04:56:10;99364.19;;;4.63;95.04
73952;BME280;62304;47.662;18.324;2023-01-16T04:59:13;99361.91;;;4.65;94.15
73952;BME280;62304;47.662;18.324;2023-01-16T05:02:16;99359.22;;;4.53;93.83
73952;BME280;62304;47.662;18.324;2023-01-16T05:05:19;99355.66;;;4.37;94.09
73952;BME280;62304;47.662;18.324;2023-01-16T05:08:22;99365.59;;;4.42;94.28
73952;BME280;62304;47.662;18.324;2023-01-16T05:11:30;99357.47;;;4.30;95.26
73952;BME280;62304;47.662;18.324;2023-01-16T05:14:33;99352.72;;;3.99;97.15
73952;BME280;62304;47.662;18.324;2023-01-16T05:17:35;99356.00;;;4.20;96.44
73952;BME280;62304;47.662;18.324;2023-01-16T05:20:39;99364.44;;;4.27;95.81
73952;BME280;62304;47.662;18.324;2023-01-16T05:23:42;99360.25;;;4.18;95.64
73952;BME280;62304;47.662;18.324;2023-01-16T05:26:45;99371.53;;;4.01;95.71
73952;BME280;62304;47.662;18.324;2023-01-16T05:29:48;99361.19;;;3.94;96.52
73952;BME280;62304;47.662;18.324;2023-01-16T05:32:51;99365.12;;;4.09;96.91
73952;BME280;62304;47.662;18.324;2023-01-16T05:35:54;99367.94;;;4.12;96.56
73952;BME280;62304;47.662;18.324;2023-01-16T05:38:58;99376.84;;;4.21;96.43
73952;BME280;62304;47.662;18.324;2023-01-16T05:42:00;99391.00;;;4.23;96.39
73952;BME280;62304;47.662;18.324;2023-01-16T05:45:04;99400.97;;;4.16;96.14
73952;BME280;62304;47.662;18.324;2023-01-16T05:48:07;99406.72;;;4.11;96.19
73952;BME280;62304;47.662;18.324;2023-01-16T05:51:10;99410.34;;;4.15;96.65
73952;BME280;62304;47.662;18.324;2023-01-16T05:54:14;99408.84;;;4.17;97.43
73952;BME280;62304;47.662;18.324;2023-01-16T05:57:17;99400.22;;;4.46;96.48
73952;BME280;62304;47.662;18.324;2023-01-16T06:00:20;99392.47;;;4.64;95.88
73952;BME280;62304;47.662;18.324;2023-01-16T06:03:24;99385.16;;;4.40;96.10
73952;BME280;62304;47.662;18.324;2023-01-16T06:06:27;99362.69;;;4.50;95.73
73952;BME280;62304;47.662;18.324;2023-01-16T06:09:30;99364.62;;;4.50;95.76
73952;BME280;62304;47.662;18.324;2023-01-16T06:12:33;99363.13;;;4.37;96.24
73952;BME280;62304;47.662;18.324;2023-01-16T06:15:37;99359.13;;;4.19;96.81
73952;BME280;62304;47.662;18.324;2023-01-16T06:18:39;99360.16;;;4.14;96.93
73952;BME280;62304;47.662;18.324;2023-01-16T06:21:43;99352.91;;;4.06;97.12
73952;BME280;62304;47.662;18.324;2023-01-16T06:24:45;99359.44;;;4.02;97.69
73952;BME280;62304;47.662;18.324;2023-01-16T06:27:50;99353.97;;;4.17;97.42
73952;BME280;62304;47.662;18.324;2023-01-16T06:30:53;99352.81;;;4.18;97.43
73952;BME280;62304;47.662;18.324;2023-01-16T06:33:56;99356.13;;;4.39;96.76
73952;BME280;62304;47.662;18.324;2023-01-16T06:36:59;99361.78;;;4.46;96.01
73952;BME280;62304;47.662;18.324;2023-01-16T06:40:03;99363.47;;;4.35;95.57
73952;BME280;62304;47.662;18.324;2023-01-16T06:43:06;99368.31;;;4.26;95.59
73952;BME280;62304;47.662;18.324;2023-01-16T06:46:09;99363.13;;;4.21;95.83
73952;BME280;62304;47.662;18.324;2023-01-16T06:49:12;99367.41;;;4.07;96.45
73952;BME280;62304;47.662;18.324;2023-01-16T06:52:16;99355.91;;;4.01;97.07
73952;BME280;62304;47.662;18.324;2023-01-16T06:55:19;99353.44;;;4.12;97.05
73952;BME280;62304;47.662;18.324;2023-01-16T06:58:22;99353.25;;;4.20;97.00
73952;BME280;62304;47.662;18.324;2023-01-16T07:01:25;99349.09;;;4.11;96.64
73952;BME280;62304;47.662;18.324;2023-01-16T07:04:28;99338.84;;;4.08;96.86
73952;BME280;62304;47.662;18.324;2023-01-16T07:07:31;99326.53;;;4.02;97.62
73952;BME280;62304;47.662;18.324;2023-01-16T07:10:35;99327.47;;;4.09;97.83
73952;BME280;62304;47.662;18.324;2023-01-16T07:13:37;99326.78;;;4.12;97.58
73952;BME280;62304;47.662;18.324;2023-01-16T07:16:41;99331.63;;;4.03;97.41
73952;BME280;62304;47.662;18.324;2023-01-16T07:20:03;99331.91;;;3.98;97.69
73952;BME280;62304;47.662;18.324;2023-01-16T07:23:27;99326.88;;;4.00;98.11
73952;BME280;62304;47.662;18.324;2023-01-16T07:26:32;99315.56;;;4.02;98.76
73952;BME280;62304;47.662;18.324;2023-01-16T07:29:36;99308.03;;;4.14;98.57
73952;BME280;62304;47.662;18.324;2023-01-16T07:32:40;99297.25;;;4.21;98.48
73952;BME280;62304;47.662;18.324;2023-01-16T07:35:43;99284.41;;;4.25;98.23
73952;BME280;62304;47.662;18.324;2023-01-16T07:38:47;99258.53;;;4.26;98.09
73952;BME280;62304;47.662;18.324;2023-01-16T07:41:51;99259.53;;;4.18;98.29
73952;BME280;62304;47.662;18.324;2023-01-16T07:44:59;99256.53;;;4.08;98.49
73952;BME280;62304;47.662;18.324;2023-01-16T07:48:02;99245.91;;;4.06;98.55
73952;BME280;62304;47.662;18.324;2023-01-16T07:51:05;99234.41;;;4.16;98.52
73952;BME280;62304;47.662;18.324;2023-01-16T07:54:08;99231.19;;;4.14;98.49
73952;BME280;62304;47.662;18.324;2023-01-16T07:57:11;99221.22;;;4.06;98.65
73952;BME280;62304;47.662;18.324;2023-01-16T08:00:15;99220.16;;;3.95;99.07
73952;BME280;62304;47.662;18.324;2023-01-16T08:03:18;99196.62;;;3.94;99.33
73952;BME280;62304;47.662;18.324;2023-01-16T08:06:22;99199.25;;;4.06;99.11
73952;BME280;62304;47.662;18.324;2023-01-16T08:09:25;99198.53;;;4.09;99.42
73952;BME280;62304;47.662;18.324;2023-01-16T08:12:28;99195.25;;;4.19;99.05
73952;BME280;62304;47.662;18.324;2023-01-16T08:15:31;99189.50;;;4.24;98.94
73952;BME280;62304;47.662;18.324;2023-01-16T08:18:34;99173.84;;;4.25;98.83
73952;BME280;62304;47.662;18.324;2023-01-16T08:21:37;99174.88;;;4.36;99.08
73952;BME280;62304;47.662;18.324;2023-01-16T08:24:40;99154.87;;;4.35;98.78
73952;BME280;62304;47.662;18.324;2023-01-16T08:27:43;99150.81;;;4.29;98.79
73952;BME280;62304;47.662;18.324;2023-01-16T08:30:46;99142.72;;;4.36;99.00
73952;BME280;62304;47.662;18.324;2023-01-16T08:33:49;99133.16;;;4.46;98.91
73952;BME280;62304;47.662;18.324;2023-01-16T08:36:52;99136.25;;;4.63;98.63
73952;BME280;62304;47.662;18.324;2023-01-16T08:39:56;99129.19;;;4.62;98.43
73952;BME280;62304;47.662;18.324;2023-01-16T08:42:58;99122.25;;;4.68;98.53
73952;BME280;62304;47.662;18.324;2023-01-16T08:46:22;99107.66;;;4.83;98.70
73952;BME280;62304;47.662;18.324;2023-01-16T08:49:44;99093.75;;;4.95;98.21
73952;BME280;62304;47.662;18.324;2023-01-16T08:53:06;99078.69;;;5.08;97.92
73952;BME280;62304;47.662;18.324;2023-01-16T08:56:09;99073.66;;;5.33;97.69
73952;BME280;62304;47.662;18.324;2023-01-16T08:59:12;99066.50;;;5.51;97.85
73952;BME280;62304;47.662;18.324;2023-01-16T09:02:15;99064.34;;;5.63;97.38
73952;BME280;62304;47.662;18.324;2023-01-16T09:05:19;99051.59;;;5.78;97.07
73952;BME280;62304;47.662;18.324;2023-01-16T09:08:22;99043.97;;;5.90;96.23
73952;BME280;62304;47.662;18.324;2023-01-16T09:11:25;99049.78;;;5.85;96.20
73952;BME280;62304;47.662;18.324;2023-01-16T09:14:46;99060.06;;;5.88;95.17
73952;BME280;62304;47.662;18.324;2023-01-16T09:17:49;99037.56;;;5.83;95.21
73952;BME280;62304;47.662;18.324;2023-01-16T09:20:52;99030.41;;;5.78;95.47
73952;BME280;62304;47.662;18.324;2023-01-16T09:23:55;99017.94;;;5.84;95.51
73952;BME280;62304;47.662;18.324;2023-01-16T09:26:58;99007.38;;;5.86;95.00
73952;BME280;62304;47.662;18.324;2023-01-16T09:30:05;99009.84;;;5.95;94.95
73952;BME280;62304;47.662;18.324;2023-01-16T09:33:08;98992.63;;;6.01;94.51
73952;BME280;62304;47.662;18.324;2023-01-16T09:36:11;98995.81;;;6.03;94.31
73952;BME280;62304;47.662;18.324;2023-01-16T09:39:14;98981.78;;;6.12;94.55
73952;BME280;62304;47.662;18.324;2023-01-16T09:45:51;98971.06;;;5.77;95.27
73952;BME280;62304;47.662;18.324;2023-01-16T09:48:59;98968.97;;;5.71;95.30
73952;BME280;62304;47.662;18.324;2023-01-16T09:52:09;98964.81;;;5.54;95.67
73952;BME280;62304;47.662;18.324;2023-01-16T09:55:45;98953.09;;;5.31;96.12
73952;BME280;62304;47.662;18.324;2023-01-16T10:02:33;98941.59;;;5.52;96.44
73952;BME280;62304;47.662;18.324;2023-01-16T10:06:23;98934.03;;;5.45;95.56
73952;BME280;62304;47.662;18.324;2023-01-16T10:09:26;98930.66;;;5.55;95.95
73952;BME280;62304;47.662;18.324;2023-01-16T10:12:35;98909.81;;;5.54;95.60
73952;BME280;62304;47.662;18.324;2023-01-16T10:22:39;98879.00;;;5.71;94.55
73952;BME280;62304;47.662;18.324;2023-01-16T10:26:17;98880.81;;;5.86;95.04
73952;BME280;62304;47.662;18.324;2023-01-16T10:32:30;98856.25;;;5.74;93.61
73952;BME280;62304;47.662;18.324;2023-01-16T10:35:43;98843.88;;;5.58;93.36
73952;BME280;62304;47.662;18.324;2023-01-16T10:38:49;98832.38;;;5.52;93.69
73952;BME280;62304;47.662;18.324;2023-01-16T10:42:10;98820.56;;;5.48;93.56
73952;BME280;62304;47.662;18.324;2023-01-16T10:45:36;98813.13;;;5.52;93.47
73952;BME280;62304;47.662;18.324;2023-01-16T10:48:58;98797.03;;;5.51;93.77
73952;BME280;62304;47.662;18.324;2023-01-16T10:52:20;98799.72;;;5.47;93.69
73952;BME280;62304;47.662;18.324;2023-01-16T10:55:23;98784.41;;;5.46;93.90
73952;BME280;62304;47.662;18.324;2023-01-16T10:58:27;98766.31;;;5.45;94.08
73952;BME280;62304;47.662;18.324;2023-01-16T11:01:31;98757.97;;;5.35;94.12
73952;BME280;62304;47.662;18.324;2023-01-16T11:04:35;98748.88;;;5.31;93.95
73952;BME280;62304;47.662;18.324;2023-01-16T11:07:38;98740.12;;;5.25;93.85
73952;BME280;62304;47.662;18.324;2023-01-16T11:10:44;98729.09;;;5.22;94.01
73952;BME280;62304;47.662;18.324;2023-01-16T11:13:47;98721.34;;;5.27;94.09
73952;BME280;62304;47.662;18.324;2023-01-16T11:20:45;98701.44;;;5.37;93.98
73952;BME280;62304;47.662;18.324;2023-01-16T11:24:02;98703.41;;;5.40;93.44
73952;BME280;62304;47.662;18.324;2023-01-16T11:27:13;98697.03;;;5.33;93.00
73952;BME280;62304;47.662;18.324;2023-01-16T11:30:21;98692.75;;;5.35;93.35
73952;BME280;62304;47.662;18.324;2023-01-16T11:33:53;98686.44;;;5.31;93.72
73952;BME280;62304;47.662;18.324;2023-01-16T11:37:05;98691.41;;;5.19;93.18
73952;BME280;62304;47.662;18.324;2023-01-16T11:40:38;98680.81;;;5.21;93.57
73952;BME280;62304;47.662;18.324;2023-01-16T11:44:05;98667.44;;;5.19;93.88
73952;BME280;62304;47.662;18.324;2023-01-16T11:47:27;98663.12;;;5.18;94.36
73952;BME280;62304;47.662;18.324;2023-01-16T11:50:35;98663.44;;;5.13;94.45
73952;BME280;62304;47.662;18.324;2023-01-16T11:53:44;98661.13;;;5.15;94.46
73952;BME280;62304;47.662;18.324;2023-01-16T12:00:57;98648.16;;;5.16;93.73
73952;BME280;62304;47.662;18.324;2023-01-16T12:04:12;98638.75;;;5.17;94.02
73952;BME280;62304;47.662;18.324;2023-01-16T12:07:23;98626.66;;;5.21;93.81
73952;BME280;62304;47.662;18.324;2023-01-16T12:10:56;98612.13;;;5.24;93.79
73952;BME280;62304;47.662;18.324;2023-01-16T12:18:01;98600.25;;;5.13;93.67
73952;BME280;62304;47.662;18.324;2023-01-16T12:38:26;98537.53;;;5.22;92.42
73952;BME280;62304;47.662;18.324;2023-01-16T12:52:07;98495.12;;;5.23;92.50
73952;BME280;62304;47.662;18.324;2023-01-16T12:58:38;98490.81;;;5.22;93.04
73952;BME280;62304;47.662;18.324;2023-01-16T13:01:46;98481.06;;;5.28;93.08
73952;BME280;62304;47.662;18.324;2023-01-16T13:04:59;98470.09;;;5.35;92.74
73952;BME280;62304;47.662;18.324;2023-01-16T13:11:24;98463.84;;;5.38;92.49
73952;BME280;62304;47.662;18.324;2023-01-16T13:15:21;98458.38;;;5.42;91.81
73952;BME280;62304;47.662;18.324;2023-01-16T13:18:31;98455.25;;;5.43;92.05
73952;BME280;62304;47.662;18.324;2023-01-16T13:25:05;98450.56;;;5.47;91.94
73952;BME280;62304;47.662;18.324;2023-01-16T13:28:25;98439.22;;;5.56;91.72
73952;BME280;62304;47.662;18.324;2023-01-16T13:31:42;98439.63;;;5.54;91.42
73952;BME280;62304;47.662;18.324;2023-01-16T13:34:51;98430.59;;;5.57;91.35
73952;BME280;62304;47.662;18.324;2023-01-16T13:41:30;98426.31;;;5.63;91.08
73952;BME280;62304;47.662;18.324;2023-01-16T13:44:41;98419.22;;;5.62;91.39
73952;BME280;62304;47.662;18.324;2023-01-16T13:48:04;98418.47;;;5.65;91.46
73952;BME280;62304;47.662;18.324;2023-01-16T13:51:15;98420.06;;;5.66;90.92
73952;BME280;62304;47.662;18.324;2023-01-16T13:54:42;98409.06;;;5.66;90.61
73952;BME280;62304;47.662;18.324;2023-01-16T13:57:47;98400.41;;;5.64;90.77
73952;BME280;62304;47.662;18.324;2023-01-16T14:00:58;98388.56;;;5.57;90.95
73952;BME280;62304;47.662;18.324;2023-01-16T14:12:17;98389.72;;;5.52;92.43
73952;BME280;62304;47.662;18.324;2023-01-16T14:21:50;98385.69;;;5.32;92.85
73952;BME280;62304;47.662;18.324;2023-01-16T14:25:06;98380.91;;;5.26;93.05
73952;BME280;62304;47.662;18.324;2023-01-16T14:28:15;98381.28;;;5.24;93.43
73952;BME280;62304;47.662;18.324;2023-01-16T14:31:24;98386.78;;;5.24;93.32
73952;BME280;62304;47.662;18.324;2023-01-16T14:34:38;98363.22;;;5.23;93.95
73952;BME280;62304;47.662;18.324;2023-01-16T14:38:02;98366.34;;;5.22;93.74
73952;BME280;62304;47.662;18.324;2023-01-16T14:41:15;98362.81;;;5.18;93.68
73952;BME280;62304;47.662;18.324;2023-01-16T14:44:58;98367.09;;;5.12;93.76
73952;BME280;62304;47.662;18.324;2023-01-16T14:51:59;98344.28;;;5.04;94.38
73952;BME280;62304;47.662;18.324;2023-01-16T14:55:22;98331.66;;;5.00;95.88
73952;BME280;62304;47.662;18.324;2023-01-16T14:58:32;98332.44;;;4.97;94.75
73952;BME280;62304;47.662;18.324;2023-01-16T15:01:49;98333.94;;;4.87;96.81
73952;BME280;62304;47.662;18.324;2023-01-16T15:05:51;98335.44;;;4.81;97.33
73952;BME280;62304;47.662;18.324;2023-01-16T15:08:56;98325.25;;;4.78;97.06
73952;BME280;62304;47.662;18.324;2023-01-16T15:12:01;98323.63;;;4.74;96.74
73952;BME280;62304;47.662;18.324;2023-01-16T15:15:05;98317.34;;;4.73;97.10
73952;BME280;62304;47.662;18.324;2023-01-16T15:18:12;98310.66;;;4.71;96.34
73952;BME280;62304;47.662;18.324;2023-01-16T15:21:35;98307.53;;;4.69;96.58
73952;BME280;62304;47.662;18.324;2023-01-16T15:31:36;98294.50;;;4.62;97.01
73952;BME280;62304;47.662;18.324;2023-01-16T15:34:41;98289.78;;;4.59;97.06
73952;BME280;62304;47.662;18.324;2023-01-16T15:37:52;98289.81;;;4.63;97.11
73952;BME280;62304;47.662;18.324;2023-01-16T15:40:55;98281.97;;;4.61;96.82
73952;BME280;62304;47.662;18.324;2023-01-16T15:43:59;98281.97;;;4.65;96.81
73952;BME280;62304;47.662;18.324;2023-01-16T15:51:06;98254.19;;;4.70;96.45
73952;BME280;62304;47.662;18.324;2023-01-16T15:54:13;98256.91;;;4.70;96.55
73952;BME280;62304;47.662;18.324;2023-01-16T15:57:17;98249.88;;;4.72;96.40
73952;BME280;62304;47.662;18.324;2023-01-16T16:00:30;98253.03;;;4.74;96.17
73952;BME280;62304;47.662;18.324;2023-01-16T16:06:44;98254.59;;;4.75;96.04
73952;BME280;62304;47.662;18.324;2023-01-16T16:09:49;98252.62;;;4.72;96.13
73952;BME280;62304;47.662;18.324;2023-01-16T16:12:53;98240.81;;;4.68;96.26
73952;BME280;62304;47.662;18.324;2023-01-16T16:15:59;98248.69;;;4.73;96.00
73952;BME280;62304;47.662;18.324;2023-01-16T16:19:32;98251.44;;;4.73;96.35
73952;BME280;62304;47.662;18.324;2023-01-16T16:22:35;98256.19;;;4.76;96.06
73952;BME280;62304;47.662;18.324;2023-01-16T16:26:02;98256.59;;;4.78;95.80
73952;BME280;62304;47.662;18.324;2023-01-16T16:29:06;98253.81;;;4.75;96.06
73952;BME280;62304;47.662;18.324;2023-01-16T16:32:13;98244.41;;;4.76;96.41
73952;BME280;62304;47.662;18.324;2023-01-16T16:35:32;98242.03;;;4.74;96.56
73952;BME280;62304;47.662;18.324;2023-01-16T16:41:46;98218.16;;;4.85;96.40
73952;BME280;62304;47.662;18.324;2023-01-16T16:48:27;98217.78;;;4.83;95.96
73952;BME280;62304;47.662;18.324;2023-01-16T16:51:32;98206.06;;;4.90;96.01
73952;BME280;62304;47.662;18.324;2023-01-16T16:54:36;98201.28;;;4.80;96.04
73952;BME280;62304;47.662;18.324;2023-01-16T16:57:42;98197.34;;;4.77;96.22
73952;BME280;62304;47.662;18.324;2023-01-16T17:00:46;98196.56;;;4.84;96.39
73952;BME280;62304;47.662;18.324;2023-01-16T17:03:52;98201.31;;;4.90;96.13
73952;BME280;62304;47.662;18.324;2023-01-16T17:06:57;98201.72;;;4.89;95.90
73952;BME280;62304;47.662;18.324;2023-01-16T17:10:00;98196.19;;;4.85;96.19
73952;BME280;62304;47.662;18.324;2023-01-16T17:13:03;98201.69;;;4.85;96.12
73952;BME280;62304;47.662;18.324;2023-01-16T17:19:29;98208.41;;;4.91;96.31
73952;BME280;62304;47.662;18.324;2023-01-16T17:22:33;98216.22;;;4.86;96.44
73952;BME280;62304;47.662;18.324;2023-01-16T17:25:36;98201.31;;;4.83;97.03
73952;BME280;62304;47.662;18.324;2023-01-16T17:28:39;98200.50;;;4.86;97.26
73952;BME280;62304;47.662;18.324;2023-01-16T17:31:43;98195.00;;;4.83;97.43
73952;BME280;62304;47.662;18.324;2023-01-16T17:34:46;98196.56;;;4.80;97.58
73952;BME280;62304;47.662;18.324;2023-01-16T17:37:50;98183.25;;;4.79;97.66
73952;BME280;62304;47.662;18.324;2023-01-16T17:40:53;98164.41;;;4.77;97.73
73952;BME280;62304;47.662;18.324;2023-01-16T17:43:57;98160.84;;;4.73;98.33
73952;BME280;62304;47.662;18.324;2023-01-16T17:47:19;98155.72;;;4.75;98.34
73952;BME280;62304;47.662;18.324;2023-01-16T17:50:22;98148.69;;;4.81;98.00
73952;BME280;62304;47.662;18.324;2023-01-16T17:53:27;98148.75;;;4.85;97.51
73952;BME280;62304;47.662;18.324;2023-01-16T17:56:31;98160.12;;;4.90;97.45
73952;BME280;62304;47.662;18.324;2023-01-16T17:59:34;98159.38;;;4.97;97.18
73952;BME280;62304;47.662;18.324;2023-01-16T18:02:37;98163.69;;;4.98;97.04
73952;BME280;62304;47.662;18.324;2023-01-16T18:05:41;98146.47;;;5.01;97.37
73952;BME280;62304;47.662;18.324;2023-01-16T18:08:48;98146.03;;;4.95;97.54
73952;BME280;62304;47.662;18.324;2023-01-16T18:11:51;98143.66;;;4.94;97.54
73952;BME280;62304;47.662;18.324;2023-01-16T18:15:14;98144.47;;;4.94;97.38
73952;BME280;62304;47.662;18.324;2023-01-16T18:18:36;98144.84;;;4.96;97.53
73952;BME280;62304;47.662;18.324;2023-01-16T18:21:42;98137.41;;;4.97;97.25
73952;BME280;62304;47.662;18.324;2023-01-16T18:25:06;98141.75;;;5.01;97.29
73952;BME280;62304;47.662;18.324;2023-01-16T18:28:10;98131.13;;;5.03;97.17
73952;BME280;62304;47.662;18.324;2023-01-16T18:31:18;98117.41;;;5.00;97.20
73952;BME280;62304;47.662;18.324;2023-01-16T18:34:23;98117.81;;;5.09;96.92
73952;BME280;62304;47.662;18.324;2023-01-16T18:37:39;98104.88;;;5.09;96.61
73952;BME280;62304;47.662;18.324;2023-01-16T18:40:43;98113.50;;;5.08;96.50
73952;BME280;62304;47.662;18.324;2023-01-16T18:44:06;98106.44;;;5.07;96.36
73952;BME280;62304;47.662;18.324;2023-01-16T18:47:29;98104.09;;;5.05;96.19
73952;BME280;62304;47.662;18.324;2023-01-16T18:50:51;98092.28;;;5.05;95.89
73952;BME280;62304;47.662;18.324;2023-01-16T18:54:16;98103.66;;;5.03;95.15
73952;BME280;62304;47.662;18.324;2023-01-16T18:57:42;98095.44;;;5.03;94.79
73952;BME280;62304;47.662;18.324;2023-01-16T19:01:04;98095.41;;;5.00;94.43
73952;BME280;62304;47.662;18.324;2023-01-16T19:04:28;98084.06;;;5.01;93.37
73952;BME280;62304;47.662;18.324;2023-01-16T19:07:32;98078.16;;;4.99;93.39
73952;BME280;62304;47.662;18.324;2023-01-16T19:10:37;98078.16;;;4.99;93.52
73952;BME280;62304;47.662;18.324;2023-01-16T19:13:43;98070.69;;;4.96;93.35
73952;BME280;62304;47.662;18.324;2023-01-16T19:16:49;98068.75;;;4.93;93.07
73952;BME280;62304;47.662;18.324;2023-01-16T19:19:59;98074.97;;;4.87;92.73
73952;BME280;62304;47.662;18.324;2023-01-16T19:23:04;98083.59;;;4.85;92.55